Hauptseite
METAR-TAF:

METAR-TAF

Flughäfen :

Mar del Plata, Argentinien

Breite: 37-56S, Länge: 057-35W, Höhe: 18 m

Beobachtung

Neuester Wetterbericht von vor 15 Minuten, um 08:00 UTC
Wind 6 kt aus Süd/Südwest
Temperatur 9°C
Luftfeuchtigkeit 76%
Luftdruck 1024 hPa
Sichtweite 10 km oder mehr
Geschlossene Wolkendecke in der Höhe von 2000 ft

METAR: SAZM 230800Z 20006KT 9999 OVC020 09/05 Q1024

Zeit: 05:15 (08:15 UTC)

Prognose

Neuester Wetterbericht von vor 3 Stunden und 15 Minuten, um 05:00 UTC
Gültige Prognose vom 23 um 06 UTC bis 24 um 06 UTC
Wind 15 kt aus Süd
Sichtweite 10 km oder mehr
Durchbrochene Bewölkung in der Höhe von 1500 ft
Übergehend zu
vom 23 um 11 UTC bis 23 um 13 UTC
Aufgelockert bewölkt in der Höhe von 3000 ft
Übergehend zu
vom 23 um 16 UTC bis 23 um 19 UTC
Wind 15 kt aus Südost

TAF: SAZM 230500Z 2306/2406 18015KT 9999 BKN015 TX13/2318Z TN08/2309Z BECMG 2311/2313 SCT030 BECMG 2316/2319 13015KT

Wetterbeobachtungen und Prognosen von mehr als 4000 Flughäfen (METAR und TAF Bericht).

Die verfügbaren Stationen werden durch gelbe und rote Markierungen auf der Karte dargestellt.

Führen Sie die Maus auf sie, um den Namen der Station zu sehen.

Darauf klicken, um die Beobachtung von Wetterbeobachtungen und Prognosen zu sehen.

Um die Karte zu ändern : klicken Sie auf den grünen Tasten mit einem schwarzen Kreuz Zum Vergrößern, auf den grünen Button mit einem Gedankenstrich zu verkleinern, oder auf die grünen Pfeile für benachbarte Karten.


METAR-TAF: